Time;durP1;ratioP1;P1;durP2;ratioP2;P2;SDS_P1;SDS_P2;PMS_P1;PMS_P2;Temp;Humidity;BMP_temperature;BMP_pressure;BME280_temperature;BME280_humidity;BME280_pressure;Samples;Min_cycle;Max_cycle;Signal;HPM_P1;HPM_P2
2022/04/02 00:01:43;;;;;;;8.57;3.15;;;0.80;99.90;;;;;;5011371;28;20053;-47
2022/04/02 00:04:09;;;;;;;7.22;3.28;;;0.80;99.90;;;;;;5010717;28;20093;-46
2022/04/02 00:06:36;;;;;;;8.35;3.08;;;0.80;99.90;;;;;;5010377;28;20179;-45
2022/04/02 00:09:03;;;;;;;7.30;3.47;;;0.80;99.90;;;;;;5011430;28;20053;-48
2022/04/02 00:11:29;;;;;;;7.72;3.65;;;0.80;99.90;;;;;;5011043;28;20526;-47
2022/04/02 00:13:55;;;;;;;7.32;3.25;;;0.80;99.90;;;;;;5009095;28;20080;-46
2022/04/02 00:16:21;;;;;;;7.50;3.00;;;0.80;99.90;;;;;;5011981;28;20046;-46
2022/04/02 00:18:49;;;;;;;6.95;3.25;;;0.80;99.90;;;;;;5010134;28;20555;-44
2022/04/02 00:21:15;;;;;;;7.93;3.42;;;0.80;99.90;;;;;;5009734;28;20083;-46
2022/04/02 00:23:43;;;;;;;7.93;3.13;;;0.80;99.90;;;;;;5011561;28;20042;-48
2022/04/02 00:26:20;;;;;;;8.52;3.00;;;0.80;99.90;;;;;;5011763;28;20469;-48
2022/04/02 00:28:48;;;;;;;6.22;3.25;;;0.80;99.90;;;;;;5011211;28;20060;-49
2022/04/02 00:31:15;;;;;;;6.95;3.15;;;0.80;99.90;;;;;;5011506;28;21262;-47
2022/04/02 00:33:43;;;;;;;6.85;3.08;;;0.70;99.90;;;;;;5011478;28;20469;-47
2022/04/02 00:36:10;;;;;;;7.18;3.28;;;0.70;99.90;;;;;;5011523;28;20465;-45
2022/04/02 00:38:36;;;;;;;6.40;3.22;;;0.70;99.90;;;;;;5010368;28;20914;-46
2022/04/02 00:41:02;;;;;;;8.32;3.80;;;0.70;99.90;;;;;;5011083;28;20049;-49
2022/04/02 00:43:34;;;;;;;9.95;3.20;;;0.80;99.90;;;;;;5011059;28;20386;-49
2022/04/02 00:46:05;;;;;;;7.20;3.30;;;0.70;99.90;;;;;;5011483;28;20026;-49
2022/04/02 00:48:31;;;;;;;7.18;3.08;;;0.70;99.90;;;;;;5011080;28;20033;-44
2022/04/02 00:50:58;;;;;;;7.40;3.45;;;0.70;99.90;;;;;;5010784;28;20032;-50
2022/04/02 00:53:28;;;;;;;10.57;3.10;;;0.70;99.90;;;;;;5010630;28;20045;-46
2022/04/02 00:55:55;;;;;;;7.50;2.97;;;0.80;99.90;;;;;;5011173;28;20029;-48
2022/04/02 00:58:20;;;;;;;5.38;2.75;;;0.70;99.90;;;;;;5011164;28;20038;-49
2022/04/02 01:00:46;;;;;;;5.88;2.70;;;0.80;99.90;;;;;;5010861;28;20084;-46
2022/04/02 01:03:13;;;;;;;9.20;3.25;;;0.80;99.90;;;;;;5009104;28;20080;-51
2022/04/02 01:05:40;;;;;;;5.90;3.08;;;0.80;99.90;;;;;;5008601;28;20041;-44
2022/04/02 01:08:06;;;;;;;5.65;2.50;;;0.80;99.90;;;;;;5010550;28;20061;-49
2022/04/02 01:10:36;;;;;;;6.80;2.90;;;0.80;99.90;;;;;;5010885;28;20084;-45
2022/04/02 01:13:02;;;;;;;7.32;3.20;;;0.70;99.90;;;;;;5010563;28;20686;-44
2022/04/02 01:15:28;;;;;;;7.72;2.92;;;0.70;99.90;;;;;;5010948;28;20084;-45
2022/04/02 01:17:55;;;;;;;7.78;2.70;;;0.80;99.90;;;;;;4992952;28;20481;-44
2022/04/02 01:20:22;;;;;;;9.23;3.25;;;0.70;99.90;;;;;;5010216;28;20095;-46
2022/04/02 01:22:48;;;;;;;8.65;3.55;;;0.80;99.90;;;;;;5010863;28;20042;-47
2022/04/02 01:25:14;;;;;;;9.20;3.10;;;0.70;99.90;;;;;;5010686;28;20037;-47
2022/04/02 01:27:41;;;;;;;7.78;2.90;;;0.70;99.90;;;;;;5010850;28;20068;-46
2022/04/02 01:30:08;;;;;;;8.18;3.22;;;0.80;99.90;;;;;;5009929;28;20084;-50
2022/04/02 01:32:33;;;;;;;6.28;3.00;;;0.80;99.90;;;;;;5010511;28;20068;-47
2022/04/02 01:34:59;;;;;;;6.00;2.80;;;0.70;99.90;;;;;;5010244;28;20077;-47
2022/04/02 01:37:25;;;;;;;6.25;3.25;;;0.70;99.90;;;;;;5010532;28;20216;-47
2022/04/02 01:39:51;;;;;;;8.30;2.97;;;0.80;99.90;;;;;;5010327;28;20493;-47
2022/04/02 01:42:20;;;;;;;7.03;2.90;;;0.70;99.90;;;;;;4995902;28;20050;-45
2022/04/02 01:44:51;;;;;;;5.50;2.92;;;0.80;99.90;;;;;;4990536;28;20073;-48
2022/04/02 01:47:21;;;;;;;8.13;2.50;;;0.80;99.90;;;;;;4989917;28;20049;-51
2022/04/02 01:49:47;;;;;;;5.70;2.80;;;0.80;99.90;;;;;;4988350;28;20038;-47
2022/04/02 01:52:16;;;;;;;5.90;2.58;;;0.80;99.90;;;;;;4990707;28;20149;-48
2022/04/02 01:54:46;;;;;;;6.90;2.90;;;0.70;99.90;;;;;;4990703;28;20128;-49
2022/04/02 01:57:12;;;;;;;9.18;3.38;;;0.80;99.90;;;;;;4984287;28;20054;-48
2022/04/02 01:59:40;;;;;;;7.70;3.00;;;0.70;99.90;;;;;;4986040;28;20034;-45
2022/04/02 02:02:07;;;;;;;7.85;3.38;;;0.80;99.90;;;;;;4972883;28;20050;-49
2022/04/02 02:04:33;;;;;;;6.63;3.15;;;0.70;99.90;;;;;;4994539;28;20133;-46
2022/04/02 02:07:00;;;;;;;5.30;2.90;;;0.70;99.90;;;;;;4994994;28;20034;-45
2022/04/02 02:09:25;;;;;;;8.77;3.10;;;0.60;99.90;;;;;;4994588;28;20042;-43
2022/04/02 02:11:51;;;;;;;7.03;3.38;;;0.60;99.90;;;;;;4994705;28;20034;-44
2022/04/02 02:14:17;;;;;;;8.20;2.78;;;0.60;99.90;;;;;;4994538;28;20046;-47
2022/04/02 02:16:42;;;;;;;6.63;2.65;;;0.60;99.90;;;;;;4994307;28;20044;-48
2022/04/02 02:19:08;;;;;;;6.13;2.85;;;0.60;99.90;;;;;;4994683;28;20069;-46
2022/04/02 02:21:34;;;;;;;6.22;2.80;;;0.60;99.90;;;;;;4994691;28;20041;-47
2022/04/02 02:24:00;;;;;;;7.05;3.03;;;0.60;99.90;;;;;;4994309;28;20138;-47
2022/04/02 02:26:25;;;;;;;7.13;3.03;;;0.60;99.90;;;;;;4994474;28;20026;-44
2022/04/02 02:28:51;;;;;;;8.10;2.92;;;0.50;99.90;;;;;;4993975;28;20410;-47
2022/04/02 02:31:17;;;;;;;5.90;2.88;;;0.60;99.90;;;;;;4994092;28;20085;-45
2022/04/02 02:36:27;;;;;;;7.38;3.28;;;0.60;99.90;;;;;;4993431;28;20064;-46
2022/04/02 02:38:53;;;;;;;6.20;3.10;;;0.60;99.90;;;;;;4990171;28;20059;-48
2022/04/02 02:41:18;;;;;;;8.98;3.40;;;0.50;99.90;;;;;;4992615;28;20042;-46
2022/04/02 02:43:44;;;;;;;11.98;3.30;;;0.50;99.90;;;;;;4994143;28;20462;-48
2022/04/02 02:46:14;;;;;;;9.82;3.28;;;0.60;99.90;;;;;;4993699;28;20042;-50
2022/04/02 02:48:43;;;;;;;10.18;3.40;;;0.50;99.90;;;;;;4994166;28;20446;-46
2022/04/02 02:51:09;;;;;;;10.98;3.90;;;0.50;99.90;;;;;;4993981;28;20074;-49
2022/04/02 02:53:35;;;;;;;7.90;3.38;;;0.60;99.90;;;;;;4994077;28;20425;-52
2022/04/02 02:56:00;;;;;;;9.90;3.10;;;0.60;99.90;;;;;;4993830;28;20053;-49
2022/04/02 02:58:26;;;;;;;7.68;3.55;;;0.50;99.90;;;;;;4993781;28;20053;-46
2022/04/02 03:00:52;;;;;;;8.98;3.63;;;0.50;99.90;;;;;;4993437;28;20042;-47
2022/04/02 03:03:18;;;;;;;5.85;3.28;;;0.50;99.90;;;;;;4993853;28;20096;-46
2022/04/02 03:05:44;;;;;;;7.20;3.40;;;0.50;99.90;;;;;;4993413;28;20073;-49
2022/04/02 03:08:09;;;;;;;6.07;3.13;;;0.50;99.90;;;;;;4993615;28;20482;-47
2022/04/02 03:10:36;;;;;;;8.27;3.25;;;0.50;99.90;;;;;;4993281;28;20045;-46
2022/04/02 03:13:01;;;;;;;9.50;3.33;;;0.40;99.90;;;;;;4993152;28;20049;-49
2022/04/02 03:15:27;;;;;;;7.07;3.67;;;0.40;99.90;;;;;;4993539;28;20046;-49
2022/04/02 03:18:00;;;;;;;9.13;3.92;;;0.40;99.90;;;;;;4991346;28;20038;-45
2022/04/02 03:20:26;;;;;;;8.15;3.17;;;0.40;99.90;;;;;;4991304;28;20041;-49
2022/04/02 03:22:52;;;;;;;6.18;3.30;;;0.40;99.90;;;;;;4992449;28;20397;-49
2022/04/02 03:25:20;;;;;;;7.70;3.50;;;0.40;99.90;;;;;;4993102;28;20100;-49
2022/04/02 03:27:47;;;;;;;6.85;3.30;;;0.30;99.90;;;;;;4975519;28;20109;-51
2022/04/02 03:30:16;;;;;;;9.43;3.47;;;0.40;99.90;;;;;;4992219;28;20118;-45
2022/04/02 03:32:42;;;;;;;8.05;3.05;;;0.40;99.90;;;;;;4993286;28;20046;-50
2022/04/02 03:35:08;;;;;;;7.32;3.03;;;0.30;99.90;;;;;;4992983;28;20398;-48
2022/04/02 03:37:39;;;;;;;7.57;3.22;;;0.20;99.90;;;;;;4992959;28;20041;-49
2022/04/02 03:40:09;;;;;;;10.68;3.63;;;0.20;99.90;;;;;;5000689;28;20152;-49
2022/04/02 03:42:35;;;;;;;8.82;3.63;;;0.20;99.90;;;;;;5012607;28;20026;-50
2022/04/02 03:45:02;;;;;;;10.75;3.38;;;0.20;99.90;;;;;;5012080;28;20500;-48
2022/04/02 03:47:27;;;;;;;9.25;3.42;;;0.10;99.90;;;;;;5012067;28;20412;-46
2022/04/02 03:49:53;;;;;;;8.80;3.53;;;0.10;99.90;;;;;;5012146;28;20042;-46
2022/04/02 03:52:19;;;;;;;7.50;3.65;;;0.10;99.90;;;;;;5012098;28;20045;-47
2022/04/02 03:54:45;;;;;;;7.07;3.28;;;0.00;99.90;;;;;;5012334;28;20044;-49
2022/04/02 03:57:12;;;;;;;6.57;3.33;;;0.20;99.90;;;;;;5012037;28;20076;-47
2022/04/02 03:59:40;;;;;;;7.45;2.90;;;0.00;99.90;;;;;;5011652;28;20053;-44
2022/04/02 04:02:07;;;;;;;9.82;3.00;;;0.00;99.90;;;;;;5012217;28;20042;-47
2022/04/02 04:04:33;;;;;;;8.45;3.67;;;0.00;99.90;;;;;;5008589;28;20567;-49
2022/04/02 04:06:59;;;;;;;6.75;3.45;;;0.00;99.90;;;;;;4992900;28;20041;-47
2022/04/02 04:09:25;;;;;;;8.18;3.58;;;-0.10;99.90;;;;;;5004614;28;20115;-48
2022/04/02 04:11:51;;;;;;;7.13;3.13;;;0.00;99.90;;;;;;5012322;28;20037;-50
2022/04/02 04:14:17;;;;;;;10.02;3.40;;;0.00;99.90;;;;;;5011601;28;20120;-46
2022/04/02 04:16:43;;;;;;;7.97;3.58;;;0.00;99.90;;;;;;5012007;28;20081;-46
2022/04/02 04:19:10;;;;;;;7.97;3.55;;;0.00;99.90;;;;;;5012133;28;20054;-48
2022/04/02 04:21:36;;;;;;;6.28;2.85;;;0.00;99.90;;;;;;5011945;28;20396;-48
2022/04/02 04:24:02;;;;;;;10.73;3.72;;;-0.10;99.90;;;;;;5011341;28;20041;-47
2022/04/02 04:26:28;;;;;;;10.45;3.60;;;-0.10;99.90;;;;;;5011023;28;20112;-50
2022/04/02 04:28:54;;;;;;;8.73;3.42;;;-0.10;99.90;;;;;;5011396;28;20181;-45
2022/04/02 04:31:20;;;;;;;7.32;3.38;;;-0.10;99.90;;;;;;5011557;28;20099;-51
2022/04/02 04:33:46;;;;;;;8.30;3.17;;;-0.10;99.90;;;;;;4993848;28;20037;-48
2022/04/02 04:36:12;;;;;;;6.47;3.47;;;-0.10;99.90;;;;;;5011473;28;20139;-45
2022/04/02 04:38:38;;;;;;;6.75;3.33;;;-0.10;99.90;;;;;;5009304;28;20085;-47
2022/04/02 04:41:04;;;;;;;6.93;3.33;;;-0.10;99.90;;;;;;5011565;28;20056;-47
2022/04/02 04:43:31;;;;;;;8.52;3.42;;;-0.10;99.90;;;;;;5002366;28;20153;-48
2022/04/02 04:45:57;;;;;;;6.97;3.75;;;-0.10;99.90;;;;;;5010851;28;20038;-48
2022/04/02 04:48:23;;;;;;;12.88;4.22;;;-0.10;99.90;;;;;;5010878;28;20050;-46
2022/04/02 04:50:49;;;;;;;19.25;3.90;;;0.00;99.90;;;;;;5004352;28;20045;-47
2022/04/02 04:53:14;;;;;;;12.25;3.63;;;0.00;99.90;;;;;;5010982;28;20033;-47
2022/04/02 04:55:40;;;;;;;8.90;3.17;;;0.00;99.90;;;;;;5005051;28;20052;-48
2022/04/02 04:58:06;;;;;;;6.55;2.90;;;0.00;99.90;;;;;;5010939;28;20124;-51
2022/04/02 05:00:33;;;;;;;9.90;3.50;;;-0.10;99.90;;;;;;5010796;28;20124;-47
2022/04/02 05:02:59;;;;;;;8.70;3.30;;;-0.10;99.90;;;;;;5011202;28;20037;-48
2022/04/02 05:05:27;;;;;;;8.65;2.78;;;-0.10;99.90;;;;;;5010764;28;20050;-46
2022/04/02 05:07:53;;;;;;;6.43;3.05;;;-0.10;99.90;;;;;;4993295;28;20073;-50
2022/04/02 05:10:19;;;;;;;7.47;3.28;;;-0.20;99.90;;;;;;5011045;28;20088;-47
2022/04/02 05:12:44;;;;;;;6.30;2.92;;;-0.10;99.90;;;;;;5010730;28;20037;-46
2022/04/02 05:15:10;;;;;;;6.95;2.92;;;-0.10;99.90;;;;;;5010926;28;20030;-50
2022/04/02 05:17:37;;;;;;;6.60;2.90;;;-0.20;99.90;;;;;;4993076;28;20046;-49
2022/04/02 05:20:04;;;;;;;9.93;3.13;;;-0.20;99.90;;;;;;5010627;28;20459;-48
2022/04/02 05:22:29;;;;;;;9.82;3.15;;;-0.20;99.90;;;;;;5010391;28;20440;-49
2022/04/02 05:24:55;;;;;;;7.90;3.00;;;-0.20;99.90;;;;;;5010885;28;20038;-46
2022/04/02 05:27:21;;;;;;;8.18;3.05;;;-0.20;99.90;;;;;;5010663;28;20397;-46
2022/04/02 05:29:47;;;;;;;9.05;3.00;;;-0.10;99.90;;;;;;4992459;28;20034;-48
2022/04/02 05:32:12;;;;;;;10.27;3.05;;;-0.20;99.90;;;;;;5010486;28;20469;-49
2022/04/02 05:34:38;;;;;;;12.13;3.72;;;-0.10;99.90;;;;;;5009672;28;20049;-50
2022/04/02 05:37:04;;;;;;;7.70;3.00;;;-0.10;99.90;;;;;;5009207;28;20511;-48
2022/04/02 05:39:30;;;;;;;7.03;2.95;;;-0.10;99.90;;;;;;5008384;28;20097;-49
2022/04/02 05:41:57;;;;;;;7.75;3.00;;;-0.10;99.90;;;;;;5010293;28;20060;-47
2022/04/02 05:44:26;;;;;;;6.60;2.78;;;0.00;99.90;;;;;;5008476;28;20061;-49
2022/04/02 05:46:52;;;;;;;6.78;3.25;;;0.00;99.90;;;;;;5010050;28;20357;-49
2022/04/02 05:49:17;;;;;;;7.22;2.58;;;0.00;99.90;;;;;;5009596;28;20046;-46
2022/04/02 05:51:43;;;;;;;7.25;2.88;;;0.00;99.90;;;;;;5007123;28;20029;-50
2022/04/02 05:54:09;;;;;;;7.55;2.95;;;0.10;99.90;;;;;;5001040;28;20049;-46
2022/04/02 05:56:35;;;;;;;11.07;3.00;;;0.10;99.90;;;;;;5009925;28;20053;-48
2022/04/02 05:59:05;;;;;;;8.63;2.83;;;0.10;99.90;;;;;;5009274;28;20042;-46
2022/04/02 06:01:31;;;;;;;8.38;3.10;;;0.20;99.90;;;;;;5008740;28;20823;-50
2022/04/02 06:03:58;;;;;;;9.52;3.10;;;0.30;99.90;;;;;;5009684;28;20029;-47
2022/04/02 06:06:23;;;;;;;7.68;2.90;;;0.30;99.90;;;;;;5009338;28;20045;-46
2022/04/02 06:08:49;;;;;;;8.60;2.85;;;0.50;99.90;;;;;;5009973;28;20030;-45
2022/04/02 06:11:15;;;;;;;8.45;2.92;;;0.50;99.90;;;;;;5009954;28;20048;-48
2022/04/02 06:13:40;;;;;;;11.23;2.90;;;0.50;99.90;;;;;;5009591;28;20049;-47
2022/04/02 06:16:06;;;;;;;6.80;2.92;;;0.50;99.90;;;;;;5009723;28;20038;-45
2022/04/02 06:18:32;;;;;;;8.85;3.08;;;0.60;99.90;;;;;;5009628;28;20038;-45
2022/04/02 06:21:02;;;;;;;11.18;3.55;;;0.70;99.90;;;;;;5005791;28;20041;-47
2022/04/02 06:23:28;;;;;;;9.38;3.05;;;0.70;99.90;;;;;;5008806;28;20081;-50
2022/04/02 06:25:53;;;;;;;12.63;3.20;;;0.70;99.90;;;;;;5009689;28;20504;-47
2022/04/02 06:28:19;;;;;;;9.02;2.90;;;0.70;99.90;;;;;;5009225;28;20113;-45
2022/04/02 06:30:45;;;;;;;8.25;2.85;;;0.70;99.90;;;;;;5009447;28;20096;-47
2022/04/02 06:33:11;;;;;;;12.52;3.40;;;0.70;99.90;;;;;;5009689;28;20042;-48
2022/04/02 06:35:37;;;;;;;11.15;3.03;;;0.80;99.90;;;;;;5009781;28;20096;-49
2022/04/02 06:38:02;;;;;;;6.85;2.92;;;0.80;99.90;;;;;;5009395;28;20045;-48
2022/04/02 06:40:28;;;;;;;7.38;2.70;;;0.90;99.90;;;;;;4994792;28;20058;-47
2022/04/02 06:42:56;;;;;;;6.72;2.75;;;1.00;99.90;;;;;;4988870;28;20031;-44
2022/04/02 06:45:23;;;;;;;8.05;2.60;;;1.00;99.90;;;;;;4990004;28;20393;-46
2022/04/02 06:47:49;;;;;;;6.97;2.70;;;1.40;99.90;;;;;;4989885;28;20045;-45
2022/04/02 06:50:15;;;;;;;6.30;2.50;;;1.10;99.90;;;;;;4992281;28;20425;-45
2022/04/02 06:52:42;;;;;;;6.97;2.50;;;1.20;99.90;;;;;;4993273;28;20039;-50
2022/04/02 06:55:11;;;;;;;11.15;3.10;;;1.30;99.90;;;;;;4993135;28;20113;-44
2022/04/02 06:57:43;;;;;;;9.20;2.70;;;1.30;99.90;;;;;;4992555;28;20096;-49
2022/04/02 07:00:11;;;;;;;7.30;2.72;;;1.40;99.90;;;;;;4992750;28;20379;-47
2022/04/02 07:02:37;;;;;;;7.20;2.80;;;1.50;99.90;;;;;;4992708;28;20501;-50
2022/04/02 07:05:06;;;;;;;7.82;2.95;;;1.60;99.90;;;;;;4973920;28;20038;-43
2022/04/02 07:07:32;;;;;;;10.80;2.85;;;1.80;99.90;;;;;;4992951;28;20038;-46
2022/04/02 07:09:58;;;;;;;16.98;3.55;;;1.80;99.90;;;;;;4993285;28;20359;-46
2022/04/02 07:12:24;;;;;;;6.95;2.60;;;1.80;99.90;;;;;;4992936;28;20034;-48
2022/04/02 07:14:50;;;;;;;7.85;2.83;;;2.00;99.90;;;;;;4990982;28;20405;-46
2022/04/02 07:17:15;;;;;;;8.07;2.50;;;2.10;99.90;;;;;;4992627;28;20065;-44
2022/04/02 07:19:41;;;;;;;7.97;3.03;;;2.20;99.90;;;;;;4992798;28;20046;-49
2022/04/02 07:22:09;;;;;;;4.95;2.60;;;2.20;99.90;;;;;;4992534;28;20030;-45
2022/04/02 07:24:37;;;;;;;12.18;3.33;;;2.40;99.90;;;;;;4992708;28;20428;-46
2022/04/02 07:27:03;;;;;;;7.72;3.05;;;2.30;99.90;;;;;;4992985;28;20489;-48
2022/04/02 07:29:32;;;;;;;7.50;3.13;;;2.40;99.90;;;;;;4992137;28;20042;-46
2022/04/02 07:31:58;;;;;;;6.70;2.85;;;2.50;99.90;;;;;;4992050;28;20125;-47
2022/04/02 07:34:24;;;;;;;8.52;3.00;;;2.50;99.90;;;;;;4993430;28;20053;-46
2022/04/02 07:37:16;;;;;;;6.43;2.80;;;2.50;99.90;;;;;;4993003;28;20132;-45
2022/04/02 07:40:01;;;;;;;6.72;2.53;;;2.60;99.90;;;;;;4962904;28;20056;-49
2022/04/02 07:43:24;;;;;;;7.88;3.10;;;2.70;99.90;;;;;;5012269;28;20112;-45
2022/04/02 07:46:04;;;;;;;8.18;2.70;;;2.80;99.90;;;;;;4928543;29;20043;-50
2022/04/02 07:48:32;;;;;;;6.47;3.10;;;2.80;99.90;;;;;;4913328;29;20044;-50
2022/04/02 07:50:59;;;;;;;7.40;2.90;;;2.90;99.90;;;;;;4969322;28;20045;-45
2022/04/02 07:53:30;;;;;;;9.65;2.92;;;2.90;99.90;;;;;;5012117;28;20073;-48
2022/04/02 07:56:03;;;;;;;6.90;2.80;;;2.90;99.90;;;;;;5012717;28;20076;-52
2022/04/02 07:58:31;;;;;;;9.85;3.42;;;2.90;99.90;;;;;;5012127;28;20550;-50
2022/04/02 08:01:01;;;;;;;6.63;2.65;;;3.10;99.90;;;;;;5010739;28;20046;-47
2022/04/02 08:03:29;;;;;;;5.45;2.53;;;3.00;99.90;;;;;;5011214;28;20128;-49
2022/04/02 08:05:56;;;;;;;5.85;2.65;;;3.10;99.90;;;;;;5011873;28;20049;-47
2022/04/02 08:08:25;;;;;;;8.10;2.65;;;3.20;99.90;;;;;;5011524;28;20046;-46
2022/04/02 08:10:53;;;;;;;10.20;2.58;;;3.50;99.90;;;;;;5009883;28;20038;-46
2022/04/02 08:13:20;;;;;;;5.85;2.50;;;3.40;99.90;;;;;;5010368;28;20913;-46
2022/04/02 08:15:46;;;;;;;5.28;2.58;;;3.40;99.90;;;;;;5011790;28;20389;-50
2022/04/02 08:18:16;;;;;;;7.03;2.20;;;3.60;99.90;;;;;;5009394;28;20512;-49
2022/04/02 08:20:42;;;;;;;5.30;2.47;;;3.60;99.90;;;;;;4999952;28;20052;-44
2022/04/02 08:23:08;;;;;;;8.40;2.72;;;3.70;99.90;;;;;;5003388;28;20083;-45
2022/04/02 08:25:38;;;;;;;5.70;2.47;;;3.80;99.90;;;;;;4997066;28;21345;-49
2022/04/02 08:28:12;;;;;;;5.97;2.38;;;3.80;99.90;;;;;;4998305;28;20042;-48
2022/04/02 08:30:56;;;;;;;;;;;3.90;99.90;;;;;;4999953;28;20070;-46
2022/04/02 08:33:49;;;;;;;4.77;2.20;;;4.10;99.90;;;;;;5000130;28;19924;-49
2022/04/02 08:36:38;;;;;;;6.50;2.08;;;4.10;99.90;;;;;;4999928;28;20065;-47
2022/04/02 08:39:10;;;;;;;6.63;2.25;;;4.10;99.90;;;;;;5000688;28;20064;-49
2022/04/02 08:42:01;;;;;;;5.97;2.50;;;4.00;99.90;;;;;;5000199;28;20038;-44
2022/04/02 08:44:45;;;;;;;6.43;2.30;;;4.10;99.90;;;;;;5000988;28;20042;-46
2022/04/02 08:47:28;;;;;;;5.35;2.42;;;3.90;99.90;;;;;;5002121;28;20373;-47
2022/04/02 08:49:54;;;;;;;6.80;2.50;;;4.00;99.90;;;;;;5001940;28;20121;-47
2022/04/02 08:52:40;;;;;;;5.20;2.20;;;4.10;99.90;;;;;;4998522;28;20128;-51
2022/04/02 08:55:08;;;;;;;4.50;2.03;;;4.10;99.90;;;;;;4978238;28;20038;-47
2022/04/02 08:57:52;;;;;;;6.75;2.42;;;3.90;99.90;;;;;;4980896;28;20421;-47
2022/04/02 09:00:23;;;;;;;6.13;2.33;;;3.90;99.90;;;;;;4996875;28;20046;-46
2022/04/02 09:03:16;;;;;;;5.78;2.50;;;3.90;99.90;;;;;;4997692;28;20512;-48
2022/04/02 09:05:53;;;;;;;5.03;2.00;;;4.00;99.90;;;;;;4997303;28;20104;-48
2022/04/02 09:08:26;;;;;;;7.35;2.50;;;4.00;99.90;;;;;;4999310;28;20076;-48
2022/04/02 09:11:30;;;;;;;7.78;2.83;;;3.90;99.90;;;;;;5000562;28;20084;-47
2022/04/02 09:14:25;;;;;;;5.40;1.73;;;3.80;99.90;;;;;;4969938;28;20046;-50
2022/04/02 09:16:53;;;;;;;;;;;3.70;99.90;;;;;;5001448;28;20044;-49
2022/04/02 09:19:37;;;;;;;4.88;2.00;;;3.70;99.90;;;;;;5000350;28;20036;-48
2022/04/02 09:22:17;;;;;;;6.00;2.00;;;3.70;99.90;;;;;;5001259;28;20049;-44
2022/04/02 09:25:15;;;;;;;6.50;1.95;;;3.70;99.90;;;;;;5001165;28;20046;-46
2022/04/02 09:27:52;;;;;;;7.72;2.10;;;3.60;99.90;;;;;;4999872;28;20429;-45
2022/04/02 09:30:34;;;;;;;6.35;1.90;;;3.60;99.90;;;;;;5000292;28;20041;-47
2022/04/02 09:33:24;;;;;;;6.57;2.08;;;3.50;99.90;;;;;;5000689;28;20048;-44
2022/04/02 09:36:15;;;;;;;7.72;2.40;;;3.50;99.90;;;;;;5000666;28;20041;-48
2022/04/02 09:39:04;;;;;;;8.75;2.25;;;3.50;99.90;;;;;;4999119;28;20045;-49
2022/04/02 09:41:47;;;;;;;3.80;1.90;;;3.40;99.90;;;;;;4999975;28;20108;-45
2022/04/02 09:44:13;;;;;;;8.50;2.17;;;3.50;99.90;;;;;;5001230;28;20069;-47
2022/04/02 09:47:04;;;;;;;5.20;1.70;;;3.50;99.90;;;;;;4998488;28;20172;-50
2022/04/02 09:49:40;;;;;;;5.07;1.85;;;3.50;99.90;;;;;;5002188;28;20033;-46
2022/04/02 09:52:07;;;;;;;4.38;1.77;;;3.60;99.90;;;;;;5001986;28;20034;-45
2022/04/02 09:54:37;;;;;;;6.18;2.13;;;3.70;99.90;;;;;;5001882;28;20125;-46
2022/04/02 09:57:36;;;;;;;5.18;2.22;;;3.80;99.90;;;;;;4999690;28;20057;-44
2022/04/02 10:00:09;;;;;;;5.72;2.10;;;3.80;99.90;;;;;;5004541;28;20044;-47
2022/04/02 10:03:04;;;;;;;5.60;2.05;;;3.90;99.90;;;;;;5001933;28;20038;-44
2022/04/02 10:05:45;;;;;;;4.25;1.80;;;4.00;99.90;;;;;;4994504;28;20058;-43
2022/04/02 10:08:21;;;;;;;4.53;1.90;;;4.30;99.90;;;;;;5002142;28;20045;-48
2022/04/02 10:10:49;;;;;;;7.22;1.80;;;4.20;99.90;;;;;;5001532;28;20076;-51
2022/04/02 10:13:16;;;;;;;5.30;2.13;;;4.20;99.90;;;;;;4984513;28;20099;-49
2022/04/02 10:15:42;;;;;;;4.85;2.00;;;4.30;99.90;;;;;;5001469;28;20038;-45
2022/04/02 10:18:11;;;;;;;5.28;1.88;;;4.30;99.90;;;;;;5003967;28;20095;-47
2022/04/02 10:20:38;;;;;;;5.60;1.90;;;4.40;99.90;;;;;;4982144;28;20033;-43
2022/04/02 10:23:12;;;;;;;4.57;1.70;;;4.40;99.90;;;;;;4999498;28;20493;-46
2022/04/02 10:25:54;;;;;;;3.47;1.60;;;4.40;99.90;;;;;;5001309;28;20033;-49
2022/04/02 10:28:26;;;;;;;5.18;1.92;;;4.50;99.90;;;;;;4987427;28;20041;-45
2022/04/02 10:30:57;;;;;;;4.50;1.70;;;4.70;99.90;;;;;;5007016;28;20041;-45
2022/04/02 10:33:29;;;;;;;5.55;1.90;;;5.20;99.90;;;;;;5004235;28;20042;-44
2022/04/02 10:35:55;;;;;;;5.50;1.70;;;5.50;99.90;;;;;;5004793;28;20500;-46
2022/04/02 10:38:37;;;;;;;5.72;1.60;;;5.60;99.90;;;;;;4993729;28;20050;-44
2022/04/02 10:41:08;;;;;;;4.93;1.65;;;5.50;99.90;;;;;;4981289;28;20413;-46
2022/04/02 10:43:50;;;;;;;5.30;1.25;;;5.50;99.90;;;;;;4984753;28;20038;-46
2022/04/02 10:46:20;;;;;;;3.58;1.05;;;5.40;99.90;;;;;;4984862;28;20038;-48
2022/04/02 10:49:05;;;;;;;4.18;1.88;;;5.30;99.90;;;;;;4984576;28;20034;-47
2022/04/02 10:51:32;;;;;;;5.90;1.58;;;5.20;99.90;;;;;;4984380;28;20081;-46
2022/04/02 10:54:09;;;;;;;4.38;1.52;;;5.30;99.90;;;;;;4984935;28;20046;-45
2022/04/02 10:56:42;;;;;;;7.20;1.80;;;5.20;99.90;;;;;;4984198;28;20061;-47
2022/04/02 10:59:12;;;;;;;3.83;1.42;;;5.30;99.90;;;;;;4985159;28;20481;-48
2022/04/02 11:01:41;;;;;;;5.90;1.45;;;5.30;99.90;;;;;;4983274;28;20053;-45
2022/04/02 11:04:43;;;;;;;7.30;1.40;;;5.30;99.90;;;;;;4984474;28;20053;-45
2022/04/02 11:07:09;;;;;;;5.90;1.70;;;5.40;99.90;;;;;;4966867;28;20026;-47
2022/04/02 11:09:39;;;;;;;4.47;1.30;;;5.50;99.90;;;;;;4985403;28;20038;-51
2022/04/02 11:12:07;;;;;;;6.15;1.50;;;5.50;99.90;;;;;;4983837;28;20034;-49
2022/04/02 11:14:53;;;;;;;4.35;1.55;;;5.60;99.90;;;;;;4984078;28;20038;-49
2022/04/02 11:17:31;;;;;;;5.60;1.40;;;6.40;99.90;;;;;;4984708;28;20042;-49
2022/04/02 11:20:10;;;;;;;7.18;1.88;;;6.90;99.90;;;;;;4983852;28;20065;-46
2022/04/02 11:22:46;;;;;;;3.67;1.17;;;7.30;99.90;;;;;;4982883;28;20100;-45
2022/04/02 11:25:42;;;;;;;3.58;1.30;;;7.90;98.40;;;;;;4983404;28;20069;-45
2022/04/02 11:28:13;;;;;;;5.60;1.50;;;8.40;98.40;;;;;;4977953;28;20038;-45
2022/04/02 11:30:45;;;;;;;4.05;1.40;;;8.00;97.80;;;;;;4980787;28;20058;-47
2022/04/02 11:33:15;;;;;;;6.05;1.40;;;7.60;97.70;;;;;;4981523;28;20053;-48
2022/04/02 11:35:53;;;;;;;5.72;1.35;;;6.90;99.90;;;;;;4979562;28;20567;-46
2022/04/02 11:38:20;;;;;;;3.97;1.30;;;6.40;99.90;;;;;;4965068;28;20100;-47
2022/04/02 11:41:01;;;;;;;4.32;1.42;;;5.90;99.90;;;;;;4980982;28;20149;-47
2022/04/02 11:43:33;;;;;;;8.35;1.92;;;5.50;99.90;;;;;;4981459;28;20050;-50
2022/04/02 11:46:01;;;;;;;4.40;1.42;;;5.40;99.90;;;;;;4980679;28;20102;-48
2022/04/02 11:48:32;;;;;;;5.70;1.60;;;5.40;99.90;;;;;;4977849;28;20041;-44
2022/04/02 11:51:12;;;;;;;5.03;1.50;;;5.30;99.90;;;;;;4980388;28;20042;-47
2022/04/02 11:53:40;;;;;;;3.70;1.00;;;5.70;99.90;;;;;;4980033;28;20058;-46
2022/04/02 11:56:29;;;;;;;4.32;1.60;;;5.70;99.90;;;;;;4982121;28;20108;-45
2022/04/02 11:58:57;;;;;;;3.40;1.42;;;6.00;99.90;;;;;;4975129;28;21131;-47
2022/04/02 12:01:24;;;;;;;3.33;1.13;;;6.20;99.90;;;;;;4980448;28;20074;-47
2022/04/02 12:04:09;;;;;;;3.30;1.30;;;6.60;99.90;;;;;;4979431;28;20081;-44
2022/04/02 12:06:36;;;;;;;2.92;1.10;;;6.70;99.10;;;;;;4980427;28;20035;-47
2022/04/02 12:09:23;;;;;;;7.13;1.48;;;7.00;99.50;;;;;;4973170;28;20504;-44
2022/04/02 12:11:54;;;;;;;3.58;1.17;;;7.20;97.70;;;;;;4979354;28;20035;-47
2022/04/02 12:14:27;;;;;;;4.88;1.20;;;7.70;97.30;;;;;;4981063;28;20551;-50
2022/04/02 12:17:09;;;;;;;3.73;1.10;;;7.60;92.10;;;;;;4977556;28;20497;-50
2022/04/02 12:19:42;;;;;;;3.03;1.15;;;7.80;90.50;;;;;;4980714;28;20497;-47
2022/04/02 12:22:22;;;;;;;4.70;1.20;;;7.90;86.20;;;;;;4981634;28;20035;-48
2022/04/02 12:24:50;;;;;;;3.72;1.25;;;7.90;92.00;;;;;;4982631;28;20054;-46
2022/04/02 12:27:21;;;;;;;2.88;1.10;;;7.90;92.40;;;;;;4983239;28;20673;-52
2022/04/02 12:29:48;;;;;;;5.22;1.20;;;7.70;92.40;;;;;;4982738;28;20038;-47
2022/04/02 12:32:42;;;;;;;4.78;1.30;;;7.40;92.50;;;;;;4982978;28;23830;-46
2022/04/02 12:35:09;;;;;;;2.90;1.40;;;7.00;93.10;;;;;;4956308;28;20091;-46
2022/04/02 12:37:43;;;;;;;4.45;1.33;;;7.10;96.10;;;;;;4983638;28;20117;-46
2022/04/02 12:40:29;;;;;;;4.30;1.48;;;7.10;94.60;;;;;;4995630;28;20065;-46
2022/04/02 12:43:01;;;;;;;4.75;1.50;;;7.30;96.10;;;;;;4988698;28;20118;-44
2022/04/02 12:45:29;;;;;;;5.10;1.30;;;7.40;95.20;;;;;;5002596;28;20112;-46
2022/04/02 12:48:08;;;;;;;4.65;1.63;;;7.20;95.60;;;;;;4970043;28;20100;-47
2022/04/02 12:50:59;;;;;;;5.35;1.55;;;7.30;96.70;;;;;;5001757;28;20076;-46
2022/04/02 12:54:01;;;;;;;6.40;1.80;;;7.30;96.50;;;;;;4981493;28;20044;-48
2022/04/02 12:56:38;;;;;;;8.05;1.60;;;7.60;96.50;;;;;;4979269;28;20531;-50
2022/04/02 12:59:19;;;;;;;7.38;1.88;;;7.70;97.10;;;;;;4993934;28;20057;-50
2022/04/02 13:01:46;;;;;;;5.75;1.55;;;7.50;96.90;;;;;;4995644;28;20124;-49
2022/04/02 13:04:13;;;;;;;5.50;1.70;;;7.50;96.50;;;;;;4990604;28;20045;-49
2022/04/02 13:06:48;;;;;;;4.50;1.60;;;7.40;97.30;;;;;;4991083;28;20326;-49
2022/04/02 13:09:20;;;;;;;5.22;1.80;;;7.00;96.30;;;;;;4990979;28;20576;-52
2022/04/02 13:12:04;;;;;;;2.70;1.30;;;7.00;96.70;;;;;;4999275;28;20030;-50
2022/04/02 13:14:42;;;;;;;5.68;1.50;;;7.10;98.20;;;;;;4997987;28;20049;-49
2022/04/02 13:17:10;;;;;;;5.47;1.85;;;7.10;98.20;;;;;;4986852;28;20034;-50